Time;durP1;ratioP1;P1;durP2;ratioP2;P2;SDS_P1;SDS_P2;PMS_P1;PMS_P2;Temp;Humidity;BMP_temperature;BMP_pressure;BME280_temperature;BME280_humidity;BME280_pressure;Samples;Min_cycle;Max_cycle;Signal;HPM_P1;HPM_P2
2023/07/21 00:00:12;;;;;;;4.90;0.80;;;17.00;99.90;;;15.61;100.00;97252.78;4948462;28;20051;-76
2023/07/21 00:02:41;;;;;;;3.53;0.70;;;16.90;99.90;;;15.89;100.00;97247.31;4951494;28;20066;-75
2023/07/21 00:05:09;;;;;;;3.72;0.80;;;16.90;99.90;;;16.11;100.00;97243.22;4941425;28;20063;-74
2023/07/21 00:07:37;;;;;;;3.22;0.80;;;16.90;99.90;;;15.85;100.00;97245.91;4944013;28;20177;-73
2023/07/21 00:10:09;;;;;;;2.53;0.80;;;17.00;99.90;;;15.96;100.00;97231.22;4946447;28;20818;-72
2023/07/21 00:12:47;;;;;;;3.50;0.85;;;17.10;99.90;;;15.76;100.00;97240.44;4928839;28;20098;-74
2023/07/21 00:15:17;;;;;;;3.05;1.00;;;17.00;99.90;;;15.73;100.00;97238.88;4947540;28;20154;-73
2023/07/21 00:17:47;;;;;;;2.75;1.15;;;17.00;99.90;;;15.79;100.00;97248.09;4945493;28;20051;-73
2023/07/21 00:20:25;;;;;;;1.90;0.80;;;16.90;99.90;;;15.99;100.00;97238.88;4945131;28;20501;-75
2023/07/21 00:22:52;;;;;;;2.50;0.80;;;17.00;99.90;;;15.99;100.00;97237.06;4948119;28;20059;-74
2023/07/21 00:25:19;;;;;;;2.60;0.90;;;17.00;99.90;;;16.02;100.00;97241.25;4964238;28;20864;-73
2023/07/21 00:27:47;;;;;;;4.82;0.90;;;17.00;99.90;;;16.22;100.00;97235.47;4960448;28;20121;-76
2023/07/21 00:30:14;;;;;;;3.28;0.88;;;17.10;99.90;;;16.05;100.00;97230.56;4948075;28;20155;-75
2023/07/21 00:32:45;;;;;;;3.08;0.85;;;17.10;99.90;;;16.05;100.00;97231.41;4949631;28;20599;-76
2023/07/21 00:35:12;;;;;;;2.90;1.27;;;17.10;99.90;;;15.61;100.00;97240.53;4949722;28;20556;-75
2023/07/21 00:37:41;;;;;;;2.53;0.90;;;17.00;99.90;;;15.64;100.00;97237.69;4948669;28;20515;-76
2023/07/21 00:40:09;;;;;;;3.20;1.33;;;16.90;99.90;;;15.59;100.00;97236.34;4951054;28;20061;-75
2023/07/21 00:42:37;;;;;;;4.88;0.90;;;16.80;99.90;;;15.55;100.00;97237.47;4947996;28;20047;-73
2023/07/21 00:45:05;;;;;;;2.22;0.70;;;16.80;99.90;;;15.45;100.00;97232.88;4950196;28;20464;-74
2023/07/21 00:47:35;;;;;;;2.05;0.70;;;16.70;99.90;;;15.54;100.00;97236.66;4963158;28;20055;-74
2023/07/21 00:50:03;;;;;;;2.40;0.95;;;16.60;99.90;;;15.46;100.00;97241.56;4926724;28;20055;-75
2023/07/21 00:52:33;;;;;;;6.97;1.23;;;16.60;99.90;;;15.41;100.00;97235.81;4942917;28;20117;-74
2023/07/21 00:55:01;;;;;;;3.45;0.80;;;16.50;99.90;;;15.55;100.00;97237.47;4948908;28;20067;-76
2023/07/21 00:57:29;;;;;;;2.08;0.80;;;16.50;99.90;;;15.52;100.00;97235.91;4933139;28;20090;-75
2023/07/21 00:59:56;;;;;;;4.45;0.90;;;16.60;99.90;;;15.41;100.00;97228.78;4947397;28;20579;-76
2023/07/21 01:02:23;;;;;;;3.90;0.80;;;16.60;99.90;;;15.39;100.00;97222.00;4949366;28;20126;-75
2023/07/21 01:04:51;;;;;;;1.67;0.70;;;16.60;99.90;;;15.51;100.00;97226.41;4950474;28;20046;-75
2023/07/21 01:07:18;;;;;;;1.80;1.00;;;16.50;99.90;;;15.59;100.00;97220.66;4949734;28;20086;-74
2023/07/21 01:09:45;;;;;;;4.78;1.08;;;16.60;99.90;;;15.58;100.00;97222.44;4947888;28;20059;-76
2023/07/21 01:12:13;;;;;;;2.25;0.77;;;16.60;99.90;;;15.57;100.00;97217.28;4950453;28;20106;-76
2023/07/21 01:14:40;;;;;;;2.13;0.70;;;16.60;99.90;;;15.58;100.00;97219.81;4933564;28;20058;-76
2023/07/21 01:17:09;;;;;;;3.47;0.70;;;16.60;99.90;;;15.72;100.00;97216.28;4950795;28;20047;-76
2023/07/21 01:19:37;;;;;;;4.00;0.80;;;16.70;99.90;;;15.79;100.00;97211.47;4948549;28;20051;-75
2023/07/21 01:22:31;;;;;;;3.63;1.05;;;16.70;99.90;;;15.68;100.00;97207.75;4948911;28;20075;-76
2023/07/21 01:25:12;;;;;;;3.08;0.75;;;16.70;99.90;;;15.63;100.00;97209.03;4927117;28;20485;-75
2023/07/21 01:27:40;;;;;;;2.38;0.80;;;16.80;99.90;;;15.79;100.00;97201.81;4960264;28;20051;-76
2023/07/21 01:30:14;;;;;;;2.97;0.85;;;16.70;99.90;;;15.75;100.00;97204.75;4948105;28;20066;-76
2023/07/21 01:32:44;;;;;;;5.43;1.02;;;16.70;99.90;;;15.80;100.00;97200.84;4955206;28;20142;-76
2023/07/21 01:35:15;;;;;;;2.58;0.90;;;16.80;99.90;;;15.82;100.00;97195.53;4935625;28;20073;-76
2023/07/21 01:37:45;;;;;;;3.25;0.93;;;16.80;99.90;;;15.83;100.00;97192.00;4940937;28;20062;-75
2023/07/21 01:40:15;;;;;;;2.80;0.90;;;16.70;99.90;;;15.82;100.00;97195.53;4947406;28;20508;-74
2023/07/21 01:42:47;;;;;;;5.50;0.80;;;16.70;99.90;;;15.74;100.00;97198.69;4947379;28;20043;-75
2023/07/21 01:45:15;;;;;;;3.63;0.90;;;16.70;99.90;;;15.69;100.00;97212.06;4952363;28;20467;-76
2023/07/21 01:47:45;;;;;;;4.75;0.98;;;16.70;99.90;;;15.79;100.00;97203.59;4950150;28;20047;-75
2023/07/21 01:50:17;;;;;;;5.38;1.15;;;16.80;99.90;;;15.78;100.00;97210.63;4953374;28;20082;-74
2023/07/21 01:52:46;;;;;;;2.17;0.85;;;16.70;99.90;;;15.75;100.00;97202.97;4948013;28;20753;-74
2023/07/21 01:55:22;;;;;;;3.40;0.95;;;16.80;99.90;;;15.88;100.00;97197.72;4949845;28;20149;-75
2023/07/21 01:57:58;;;;;;;2.75;0.90;;;16.70;99.90;;;15.71;100.00;97187.59;4948996;28;20050;-74
2023/07/21 02:00:33;;;;;;;2.47;1.10;;;16.60;99.90;;;15.64;100.00;97192.38;4960890;28;20051;-73
2023/07/21 02:03:17;;;;;;;1.75;0.90;;;16.60;99.90;;;15.67;100.00;97197.41;4950037;28;20078;-75
2023/07/21 02:06:16;;;;;;;2.67;1.08;;;16.60;99.90;;;15.80;100.00;97189.56;4949974;28;20109;-75
2023/07/21 02:08:43;;;;;;;3.35;1.05;;;16.70;99.90;;;15.93;100.00;97192.16;4946023;28;20147;-75
2023/07/21 02:11:11;;;;;;;1.73;0.90;;;16.80;99.90;;;16.04;100.00;97187.84;4944315;28;20075;-75
2023/07/21 02:13:39;;;;;;;4.63;1.08;;;16.80;99.90;;;15.59;100.00;97197.09;4951207;28;20472;-74
2023/07/21 02:16:06;;;;;;;5.22;1.10;;;16.80;99.90;;;15.56;100.00;97200.78;4949600;28;20055;-74
2023/07/21 02:18:35;;;;;;;3.80;1.10;;;16.70;99.90;;;15.70;100.00;97194.56;4947969;28;20047;-74
2023/07/21 02:21:04;;;;;;;3.60;0.80;;;16.70;99.90;;;15.77;100.00;97182.78;4949876;28;20055;-75
2023/07/21 02:23:31;;;;;;;4.75;1.10;;;16.70;99.90;;;15.77;100.00;97190.63;4948641;28;20106;-75
2023/07/21 02:25:59;;;;;;;2.75;1.00;;;16.70;99.90;;;15.68;100.00;97191.22;4952988;28;20237;-75
2023/07/21 02:28:26;;;;;;;3.85;1.20;;;16.80;99.90;;;15.65;100.00;97194.06;4934452;28;20043;-75
2023/07/21 02:31:03;;;;;;;3.08;1.25;;;16.70;99.90;;;15.86;100.00;97192.59;4948004;28;20075;-76
2023/07/21 02:33:31;;;;;;;2.85;1.27;;;16.80;99.90;;;15.98;100.00;97184.81;4951328;28;20535;-74
2023/07/21 02:36:00;;;;;;;2.88;1.00;;;16.80;99.90;;;15.97;100.00;97184.00;4963912;28;20113;-75
2023/07/21 02:38:28;;;;;;;2.13;0.90;;;16.90;99.90;;;15.99;100.00;97191.75;4936707;28;20107;-76
2023/07/21 02:41:00;;;;;;;3.47;0.93;;;16.90;99.90;;;15.78;100.00;97175.75;4933963;29;20055;-76
2023/07/21 02:43:27;;;;;;;8.10;0.90;;;16.90;99.90;;;15.80;100.00;97179.94;4931583;28;20055;-75
2023/07/21 02:45:54;;;;;;;3.83;1.15;;;16.70;99.90;;;15.83;100.00;97171.88;4964073;28;20356;-75
2023/07/21 02:48:22;;;;;;;5.57;1.02;;;16.60;99.90;;;15.73;100.00;97162.16;4952656;28;20081;-75
2023/07/21 02:50:55;;;;;;;2.17;1.00;;;16.40;99.90;;;15.58;100.00;97169.28;4943866;28;20048;-75
2023/07/21 02:53:23;;;;;;;2.63;1.00;;;16.30;99.90;;;15.26;100.00;97174.94;4945075;28;20109;-74
2023/07/21 02:55:50;;;;;;;5.55;1.70;;;16.20;99.90;;;15.15;100.00;97180.06;4947380;28;20058;-75
2023/07/21 02:58:18;;;;;;;4.20;1.30;;;16.10;99.90;;;15.06;100.00;97184.13;4942542;28;20047;-74
2023/07/21 03:00:46;;;;;;;2.42;1.20;;;16.00;99.90;;;15.17;100.00;97186.03;4949701;28;20058;-74
2023/07/21 03:03:15;;;;;;;2.60;1.10;;;15.90;99.90;;;15.18;100.00;97192.91;4951893;28;20039;-75
2023/07/21 03:05:42;;;;;;;2.38;1.13;;;16.00;99.90;;;15.32;100.00;97189.34;4948957;28;20060;-75
2023/07/21 03:08:15;;;;;;;2.58;1.00;;;16.00;99.90;;;15.46;100.00;97199.72;4947088;28;20051;-76
2023/07/21 03:10:42;;;;;;;2.63;1.05;;;16.20;99.90;;;15.37;100.00;97192.50;4934131;28;20075;-75
2023/07/21 03:13:12;;;;;;;3.08;1.00;;;16.20;99.90;;;15.32;100.00;97195.41;4952410;28;20051;-75
2023/07/21 03:15:40;;;;;;;1.77;0.85;;;16.20;99.90;;;15.32;100.00;97200.66;4950254;28;20054;-74
2023/07/21 03:18:08;;;;;;;5.15;1.20;;;16.30;99.90;;;15.42;100.00;97188.63;4933725;28;20055;-74
2023/07/21 03:20:35;;;;;;;3.00;1.02;;;16.40;99.90;;;15.56;100.00;97192.09;4930897;28;20051;-76
2023/07/21 03:23:02;;;;;;;2.58;0.98;;;16.30;99.90;;;15.86;100.00;97184.75;4948284;28;20053;-76
2023/07/21 03:25:31;;;;;;;3.20;0.90;;;16.50;99.90;;;15.89;100.00;97179.28;4949008;28;20138;-75
2023/07/21 03:27:57;;;;;;;2.42;0.70;;;16.70;99.90;;;15.98;100.00;97180.41;4945009;28;20062;-75
2023/07/21 03:30:25;;;;;;;2.15;0.90;;;16.70;99.90;;;16.06;100.00;97172.03;4946048;28;20051;-73
2023/07/21 03:32:55;;;;;;;5.72;1.00;;;16.80;99.90;;;16.09;100.00;97174.44;4947865;28;20051;-74
2023/07/21 03:35:22;;;;;;;6.45;1.10;;;16.90;99.90;;;16.07;100.00;97181.56;4950054;28;20047;-74
2023/07/21 03:37:50;;;;;;;2.50;0.95;;;16.90;99.90;;;16.08;100.00;97193.72;4948217;28;20138;-74
2023/07/21 03:40:17;;;;;;;2.50;1.10;;;16.90;99.90;;;16.01;100.00;97193.31;4949074;28;20051;-75
2023/07/21 03:42:45;;;;;;;2.58;0.98;;;16.90;99.90;;;15.80;100.00;97206.09;4943946;28;20129;-75
2023/07/21 03:45:12;;;;;;;4.32;0.95;;;16.80;99.90;;;15.82;100.00;97200.75;4942787;28;20074;-76
2023/07/21 03:47:39;;;;;;;2.60;1.10;;;16.80;99.90;;;15.82;100.00;97208.63;4939139;28;20079;-75
2023/07/21 03:50:08;;;;;;;4.88;1.10;;;16.80;99.90;;;15.80;100.00;97206.09;4942333;28;20158;-75
2023/07/21 03:52:35;;;;;;;1.90;0.93;;;16.80;99.90;;;15.85;100.00;97205.78;4928907;28;20058;-75
2023/07/21 03:55:03;;;;;;;3.58;1.20;;;16.80;99.90;;;15.75;100.00;97200.34;4952253;28;20131;-72
2023/07/21 03:57:30;;;;;;;3.80;1.20;;;16.70;99.90;;;15.79;100.00;97193.97;4949649;28;20570;-74
2023/07/21 03:59:57;;;;;;;3.75;1.25;;;16.50;99.90;;;15.68;100.00;97196.47;4952242;28;20051;-74
2023/07/21 04:02:25;;;;;;;2.55;1.10;;;16.40;99.90;;;15.56;100.00;97199.94;4955962;28;20433;-74
2023/07/21 04:04:53;;;;;;;3.17;1.30;;;16.20;99.90;;;15.35;100.00;97207.44;4953283;28;20141;-75
2023/07/21 04:07:23;;;;;;;3.38;1.25;;;16.10;99.90;;;15.31;100.00;97204.22;4955480;28;20138;-74
2023/07/21 04:09:51;;;;;;;6.03;1.45;;;16.10;99.90;;;15.45;100.00;97211.97;4954694;28;20082;-76
2023/07/21 04:12:18;;;;;;;3.28;1.10;;;16.00;99.90;;;15.35;100.00;97210.91;4927557;28;20082;-75
2023/07/21 04:14:45;;;;;;;3.05;1.15;;;16.00;99.90;;;15.11;100.00;97209.94;4950844;28;20055;-73
2023/07/21 04:17:13;;;;;;;3.50;1.10;;;15.90;99.90;;;15.23;100.00;97211.72;4952478;28;20054;-75
2023/07/21 04:19:41;;;;;;;4.38;1.52;;;15.90;99.90;;;15.16;100.00;97207.84;4965496;28;20055;-74
2023/07/21 04:22:08;;;;;;;6.53;1.77;;;15.80;99.90;;;15.04;100.00;97214.75;4948419;28;20051;-75
2023/07/21 04:24:35;;;;;;;2.95;1.20;;;15.80;99.90;;;15.05;100.00;97213.78;4963866;28;20050;-74
2023/07/21 04:27:03;;;;;;;2.88;1.40;;;15.80;99.90;;;15.11;100.00;97220.41;4954021;28;20050;-75
2023/07/21 04:29:30;;;;;;;3.83;1.02;;;15.70;99.90;;;15.10;100.00;97216.97;4947259;28;20051;-75
2023/07/21 04:32:03;;;;;;;2.53;1.20;;;15.60;99.90;;;15.13;100.00;97219.34;4947631;28;20054;-73
2023/07/21 04:34:31;;;;;;;4.28;1.20;;;15.60;99.90;;;15.09;100.00;97217.88;4949605;28;20063;-73
2023/07/21 04:36:59;;;;;;;4.80;1.30;;;15.60;99.90;;;15.18;100.00;97212.03;4944533;28;20117;-74
2023/07/21 04:39:27;;;;;;;2.17;1.17;;;15.50;99.90;;;15.29;100.00;97200.88;4950264;28;20058;-75
2023/07/21 04:41:57;;;;;;;3.45;1.20;;;15.60;99.90;;;15.35;100.00;97197.84;4949252;28;20075;-74
2023/07/21 04:44:24;;;;;;;4.18;1.30;;;15.60;99.90;;;15.33;100.00;97204.13;4932530;29;20966;-74
2023/07/21 04:46:51;;;;;;;3.33;1.38;;;15.70;99.90;;;15.24;100.00;97198.56;4963770;28;20065;-74
2023/07/21 04:49:18;;;;;;;2.78;1.25;;;15.70;99.90;;;15.34;100.00;97203.16;4951214;28;20073;-74
2023/07/21 04:51:45;;;;;;;2.15;1.30;;;15.70;99.90;;;15.42;100.00;97201.72;4969942;28;20126;-75
2023/07/21 04:54:12;;;;;;;2.90;1.30;;;15.80;99.90;;;15.21;100.00;97198.78;4965181;28;20099;-75
2023/07/21 04:56:39;;;;;;;3.47;1.40;;;15.80;99.90;;;15.19;100.00;97207.63;4950976;28;20138;-75
2023/07/21 04:59:06;;;;;;;4.78;1.45;;;15.90;99.90;;;15.27;100.00;97211.41;4947626;28;20058;-75
2023/07/21 05:01:34;;;;;;;3.50;1.05;;;15.90;99.90;;;15.35;100.00;97210.91;4940140;28;20055;-75
2023/07/21 05:04:00;;;;;;;4.68;1.27;;;15.90;99.90;;;15.31;100.00;97203.38;4947987;28;20491;-75
2023/07/21 05:06:29;;;;;;;5.70;1.30;;;15.80;99.90;;;15.46;100.00;97205.81;4953694;28;20051;-75
2023/07/21 05:08:56;;;;;;;3.72;1.17;;;15.70;99.90;;;15.61;100.00;97198.66;4954497;28;20051;-75
2023/07/21 05:11:25;;;;;;;4.63;1.48;;;15.80;99.90;;;15.72;100.00;97200.56;4947518;28;20051;-76
2023/07/21 05:13:52;;;;;;;4.05;1.52;;;15.90;99.90;;;15.62;100.00;97200.34;4931848;28;20059;-75
2023/07/21 05:16:22;;;;;;;3.80;1.55;;;15.90;99.90;;;15.75;100.00;97202.97;4950010;28;20047;-76
2023/07/21 05:18:50;;;;;;;2.55;1.20;;;16.00;99.90;;;15.74;100.00;97196.06;4948421;28;20057;-74
2023/07/21 05:21:18;;;;;;;3.78;1.20;;;16.00;99.90;;;15.92;100.00;97195.72;4950633;28;20059;-75
2023/07/21 05:23:45;;;;;;;4.22;1.40;;;16.10;99.90;;;15.91;100.00;97196.66;4934373;28;20099;-73
2023/07/21 05:26:12;;;;;;;5.03;1.20;;;16.20;99.90;;;15.93;100.00;97197.41;4951589;28;20078;-75
2023/07/21 05:28:39;;;;;;;2.40;0.98;;;16.30;99.90;;;16.21;100.00;97191.03;4946218;28;20059;-75
2023/07/21 05:31:07;;;;;;;6.80;1.13;;;16.40;99.90;;;16.43;100.00;97182.47;4954213;28;20059;-73
2023/07/21 05:33:34;;;;;;;4.22;1.33;;;16.50;99.90;;;16.21;100.00;97185.81;4955509;28;20055;-75
2023/07/21 05:36:10;;;;;;;4.70;1.10;;;16.70;99.90;;;16.59;100.00;97192.69;4955220;28;20750;-74
2023/07/21 05:38:37;;;;;;;3.92;1.42;;;16.90;99.90;;;16.56;100.00;97196.38;4956600;28;20114;-76
2023/07/21 05:41:05;;;;;;;3.10;1.10;;;17.20;99.90;;;16.92;100.00;97192.00;4954802;28;20051;-74
2023/07/21 05:43:32;;;;;;;3.92;1.40;;;17.30;99.90;;;16.75;100.00;97192.41;4949907;28;20574;-76
2023/07/21 05:46:03;;;;;;;4.43;1.23;;;17.40;99.90;;;16.88;100.00;97194.03;4953404;28;20126;-76
2023/07/21 05:48:30;;;;;;;3.10;0.90;;;17.30;99.90;;;17.01;100.00;97182.59;4949386;28;20073;-75
2023/07/21 05:50:58;;;;;;;3.00;1.35;;;17.30;99.90;;;16.89;100.00;97182.56;4952703;28;20152;-76
2023/07/21 05:53:25;;;;;;;3.83;1.17;;;17.20;99.90;;;16.90;100.00;97193.88;4952992;28;20525;-75
2023/07/21 05:55:52;;;;;;;2.60;1.13;;;17.20;99.90;;;17.01;100.00;97193.94;4955558;28;20129;-74
2023/07/21 05:58:20;;;;;;;2.83;1.13;;;17.30;99.90;;;17.11;100.00;97189.69;4937862;28;20113;-75
2023/07/21 06:00:47;;;;;;;3.53;1.20;;;17.40;99.90;;;17.13;100.00;97202.69;4952628;28;20046;-74
2023/07/21 06:03:14;;;;;;;3.15;1.17;;;17.70;99.90;;;17.17;100.00;97211.13;4947189;28;20051;-75
2023/07/21 06:05:42;;;;;;;3.22;1.40;;;17.70;99.90;;;16.96;100.00;97227.53;4949311;28;20046;-76
2023/07/21 06:08:09;;;;;;;5.57;1.30;;;17.70;99.90;;;17.08;100.00;97231.88;4947240;28;20046;-75
2023/07/21 06:10:38;;;;;;;4.38;1.10;;;17.80;99.90;;;17.29;100.00;97236.47;4949225;28;20133;-73
2023/07/21 06:13:06;;;;;;;4.38;1.00;;;17.80;99.90;;;17.25;100.00;97227.16;4951049;28;21007;-76
2023/07/21 06:15:34;;;;;;;1.60;0.80;;;17.80;99.90;;;17.44;100.00;97195.09;4950453;28;20063;-75
2023/07/21 06:18:03;;;;;;;5.47;1.10;;;17.80;99.90;;;17.29;100.00;97178.75;4953918;28;20456;-76
2023/07/21 06:20:30;;;;;;;1.48;0.75;;;17.80;99.90;;;17.36;100.00;97172.09;4953557;28;20067;-75
2023/07/21 06:22:57;;;;;;;5.03;0.90;;;17.80;99.90;;;17.32;100.00;97170.66;4946528;28;20709;-75
2023/07/21 06:25:25;;;;;;;2.90;1.05;;;17.80;99.90;;;17.22;100.00;97165.28;4953644;28;20057;-75
2023/07/21 06:27:51;;;;;;;4.00;0.82;;;17.90;99.90;;;17.36;100.00;97166.84;4950472;28;20102;-76
2023/07/21 06:30:19;;;;;;;2.78;1.10;;;17.80;99.90;;;17.45;100.00;97175.81;4952678;28;20134;-75
2023/07/21 06:32:46;;;;;;;4.07;1.15;;;17.80;99.90;;;17.19;100.00;97180.41;4954691;28;20051;-75
2023/07/21 06:35:16;;;;;;;1.90;0.77;;;17.80;99.90;;;17.21;100.00;97179.31;4951317;28;20066;-75
2023/07/21 06:37:43;;;;;;;5.50;1.15;;;17.70;99.90;;;17.19;100.00;97186.47;4950203;28;20063;-75
2023/07/21 06:40:11;;;;;;;2.35;0.98;;;17.70;99.90;;;17.10;100.00;97185.38;4949793;28;20122;-74
2023/07/21 06:42:43;;;;;;;5.28;2.35;;;17.70;99.90;;;17.32;100.00;97186.38;4926921;29;20047;-75
2023/07/21 06:45:11;;;;;;;5.13;1.95;;;17.70;99.90;;;17.42;100.00;97184.72;4948755;28;20484;-76
2023/07/21 06:47:38;;;;;;;4.03;1.70;;;17.80;99.90;;;17.59;100.00;97180.81;4954425;28;20074;-74
2023/07/21 06:50:06;;;;;;;3.38;1.27;;;17.80;99.90;;;17.64;100.00;97178.66;4949714;28;20464;-75
2023/07/21 06:52:34;;;;;;;2.83;1.10;;;18.00;99.90;;;17.72;100.00;97168.41;4949060;28;20055;-73
2023/07/21 06:55:02;;;;;;;3.22;1.23;;;18.20;99.90;;;17.82;100.00;97170.34;4962296;28;20137;-75
2023/07/21 06:57:29;;;;;;;3.53;0.98;;;18.40;99.90;;;18.30;100.00;97175.28;4937171;28;20118;-75
2023/07/21 06:59:56;;;;;;;3.88;1.20;;;18.60;99.90;;;18.50;100.00;97165.78;4942446;28;20078;-75
2023/07/21 07:02:24;;;;;;;1.70;0.90;;;18.80;99.90;;;18.78;100.00;97164.38;4963428;28;20135;-75
2023/07/21 07:04:54;;;;;;;2.22;0.90;;;19.10;99.90;;;18.76;100.00;97158.38;4931947;28;20619;-75
2023/07/21 07:07:21;;;;;;;3.75;1.02;;;19.20;99.90;;;18.60;100.00;97158.81;4950540;28;20484;-73
2023/07/21 07:09:48;;;;;;;3.85;1.27;;;19.20;99.90;;;18.29;100.00;97165.72;4950557;28;20149;-75
2023/07/21 07:12:15;;;;;;;3.08;1.20;;;19.00;99.90;;;18.40;100.00;97160.44;4952544;28;20086;-76
2023/07/21 07:14:44;;;;;;;2.75;0.90;;;18.90;99.90;;;18.70;100.00;97165.00;4946310;28;20051;-75
2023/07/21 07:17:12;;;;;;;3.83;0.80;;;19.00;99.90;;;18.46;100.00;97165.19;4953184;28;20055;-75
2023/07/21 07:19:41;;;;;;;3.53;1.10;;;19.10;99.90;;;18.30;100.00;97159.50;4949447;28;20055;-75
2023/07/21 07:22:09;;;;;;;2.05;1.02;;;19.00;99.90;;;18.34;100.00;97174.09;4948886;28;20677;-76
2023/07/21 07:24:36;;;;;;;3.13;0.90;;;18.80;99.90;;;18.44;100.00;97166.28;4949702;28;20172;-76
2023/07/21 07:27:04;;;;;;;3.22;0.93;;;18.90;99.90;;;18.70;100.00;97159.75;4952155;28;20054;-74
2023/07/21 07:29:31;;;;;;;1.98;0.90;;;19.00;99.90;;;18.66;100.00;97157.50;4956699;28;20047;-75
2023/07/21 07:31:58;;;;;;;4.82;1.20;;;19.00;99.90;;;18.58;100.00;97164.19;4955818;28;20054;-76
2023/07/21 07:34:26;;;;;;;8.45;1.20;;;19.00;99.90;;;18.43;100.00;97168.09;4953336;28;20055;-74
2023/07/21 07:36:54;;;;;;;3.70;1.20;;;19.00;99.90;;;18.54;100.00;97167.19;4951756;28;20602;-74
2023/07/21 07:39:21;;;;;;;3.15;1.15;;;18.90;99.90;;;18.64;100.00;97175.19;4953123;28;20066;-73
2023/07/21 07:41:49;;;;;;;2.33;1.00;;;18.80;99.90;;;18.55;100.00;97168.88;4954665;28;20094;-74
2023/07/21 07:44:17;;;;;;;3.30;1.20;;;19.00;99.90;;;18.61;100.00;97178.91;4948839;28;20051;-74
2023/07/21 07:46:44;;;;;;;2.92;1.20;;;19.10;99.90;;;18.48;100.00;97192.19;4932574;28;20051;-75
2023/07/21 07:49:11;;;;;;;4.32;1.20;;;19.20;99.90;;;18.80;100.00;97186.97;4949477;28;20669;-76
2023/07/21 07:51:38;;;;;;;3.67;1.00;;;19.10;99.90;;;19.17;100.00;97186.53;4956868;28;20054;-75
2023/07/21 07:54:07;;;;;;;3.30;1.20;;;19.10;99.90;;;19.53;100.00;97180.94;4958124;28;20178;-74
2023/07/21 07:56:34;;;;;;;2.47;1.00;;;19.50;99.90;;;19.84;100.00;97173.88;4952164;28;20123;-75
2023/07/21 07:59:01;;;;;;;4.25;1.15;;;20.00;99.90;;;20.08;100.00;97178.00;4951088;28;20055;-75
2023/07/21 08:01:29;;;;;;;2.50;1.00;;;20.30;99.90;;;19.57;100.00;97184.97;4951383;28;20512;-76
2023/07/21 08:03:56;;;;;;;5.68;1.30;;;20.30;99.90;;;19.61;100.00;97189.00;4952728;28;20047;-75
2023/07/21 08:06:25;;;;;;;1.70;0.95;;;20.10;99.90;;;19.70;100.00;97169.81;4954240;28;20057;-74
2023/07/21 08:08:55;;;;;;;4.13;1.20;;;20.10;99.90;;;19.62;100.00;97188.88;4964475;28;20113;-76
2023/07/21 08:11:23;;;;;;;3.40;1.13;;;20.20;99.90;;;19.10;100.00;97184.56;4925728;28;20431;-74
2023/07/21 08:13:50;;;;;;;2.58;1.00;;;20.00;99.90;;;19.23;100.00;97191.28;4953058;28;20043;-74
2023/07/21 08:16:19;;;;;;;3.97;1.00;;;19.70;99.90;;;18.62;100.00;97200.75;4952040;28;20192;-74
2023/07/21 08:18:46;;;;;;;3.75;1.00;;;19.30;99.90;;;18.76;100.00;97201.28;4952352;28;20051;-74
2023/07/21 08:21:21;;;;;;;1.83;0.85;;;19.30;99.90;;;18.37;100.00;97198.31;4952752;28;20094;-75
2023/07/21 08:23:52;;;;;;;2.20;1.00;;;19.00;99.90;;;18.63;100.00;97197.97;4954583;28;20122;-76
2023/07/21 08:26:20;;;;;;;2.35;0.95;;;19.10;99.90;;;18.19;100.00;97190.09;4949981;28;20083;-74
2023/07/21 08:28:47;;;;;;;3.20;1.17;;;19.00;99.90;;;18.14;100.00;97191.44;4954361;28;20074;-75
2023/07/21 08:31:15;;;;;;;4.65;1.10;;;18.90;99.90;;;18.43;100.00;97183.00;4958870;28;20043;-74
2023/07/21 08:33:42;;;;;;;3.60;0.90;;;18.80;99.90;;;18.48;100.00;97186.09;4949905;28;20046;-74
2023/07/21 08:36:10;;;;;;;1.92;0.90;;;18.80;99.90;;;18.63;100.00;97194.53;4951821;28;20054;-75
2023/07/21 08:38:38;;;;;;;4.05;1.20;;;19.00;99.90;;;18.77;100.00;97189.84;4954324;28;20047;-75
2023/07/21 08:41:11;;;;;;;4.20;1.10;;;19.20;99.90;;;18.71;100.00;97179.81;4952058;28;20500;-76
2023/07/21 08:43:39;;;;;;;3.15;1.00;;;19.30;99.90;;;18.81;100.00;97187.78;4945752;28;20107;-72
2023/07/21 08:46:08;;;;;;;2.65;1.08;;;19.40;99.90;;;19.15;100.00;97185.00;4946585;28;20079;-75
2023/07/21 08:48:39;;;;;;;1.92;0.90;;;19.60;99.90;;;19.14;100.00;97184.16;4954450;28;20572;-76
2023/07/21 08:51:08;;;;;;;3.70;1.13;;;19.60;99.90;;;19.22;100.00;97183.50;4937760;28;20228;-76
2023/07/21 08:53:37;;;;;;;4.60;0.77;;;19.80;99.90;;;19.57;100.00;97175.28;4951042;28;20059;-76
2023/07/21 08:56:06;;;;;;;2.00;0.70;;;20.00;99.90;;;19.44;100.00;97182.53;4953318;28;20055;-75
2023/07/21 08:58:33;;;;;;;1.58;0.80;;;19.70;99.90;;;19.46;100.00;97185.06;4951169;28;20059;-76
2023/07/21 09:01:04;;;;;;;1.23;0.70;;;19.70;99.90;;;19.97;100.00;97179.75;4947459;28;20047;-75
2023/07/21 09:03:31;;;;;;;3.80;0.82;;;20.00;99.90;;;20.41;100.00;97176.78;4955350;28;20251;-75
2023/07/21 09:06:00;;;;;;;1.90;0.80;;;20.50;99.90;;;21.02;100.00;97181.84;4954216;28;20055;-75
2023/07/21 09:08:30;;;;;;;3.47;0.77;;;21.00;99.90;;;21.02;100.00;97178.38;4954354;28;20091;-76
2023/07/21 09:10:59;;;;;;;2.13;0.80;;;21.30;99.90;;;20.85;100.00;97175.47;4950111;28;20056;-75
2023/07/21 09:13:27;;;;;;;2.72;1.05;;;21.50;99.90;;;21.45;100.00;97167.34;4951106;28;20062;-75
2023/07/21 09:16:02;;;;;;;2.67;0.70;;;22.10;99.90;;;22.03;100.00;97168.09;4948768;28;20051;-75
2023/07/21 09:18:42;;;;;;;4.30;0.77;;;22.40;99.90;;;22.06;100.00;97165.16;4948963;28;20533;-74
2023/07/21 09:21:21;;;;;;;1.83;0.75;;;22.60;99.90;;;22.13;100.00;97159.13;4960319;28;20059;-75
2023/07/21 09:23:49;;;;;;;2.22;0.70;;;22.40;99.90;;;22.30;100.00;97156.69;4948502;28;20047;-76
2023/07/21 09:26:23;;;;;;;1.58;0.70;;;22.50;99.90;;;21.65;100.00;97170.78;4962925;28;20063;-74
2023/07/21 09:28:51;;;;;;;2.08;0.80;;;22.40;99.90;;;20.99;100.00;97187.41;4947654;28;20710;-75
2023/07/21 09:31:31;;;;;;;2.00;0.70;;;21.90;99.90;;;21.42;100.00;97174.75;4949507;28;20055;-76
2023/07/21 09:34:09;;;;;;;1.92;0.90;;;22.10;99.90;;;21.59;100.00;97179.25;4947260;28;20058;-76
2023/07/21 09:36:44;;;;;;;3.83;0.93;;;22.10;99.90;;;21.36;100.00;97176.09;4945994;28;20059;-74
2023/07/21 09:39:16;;;;;;;2.55;0.85;;;22.00;99.90;;;21.29;100.00;97177.66;4951567;28;20062;-76
2023/07/21 09:41:45;;;;;;;2.40;0.88;;;22.20;99.90;;;21.80;100.00;97173.75;4948742;28;20051;-75
2023/07/21 09:44:13;;;;;;;3.15;0.90;;;22.00;99.90;;;21.45;100.00;97190.28;4952396;28;20047;-75
2023/07/21 09:46:41;;;;;;;3.15;1.00;;;21.90;99.90;;;21.79;100.00;97193.25;4943932;28;20134;-74
2023/07/21 09:49:09;;;;;;;2.83;0.70;;;22.00;99.90;;;21.59;100.00;97196.91;4944752;28;20043;-77
2023/07/21 09:51:37;;;;;;;3.22;0.80;;;22.10;99.90;;;21.52;100.00;97201.94;4945683;28;20058;-75
2023/07/21 09:54:06;;;;;;;4.88;0.80;;;21.60;99.90;;;20.68;100.00;97199.91;4942372;28;20055;-73
2023/07/21 09:56:40;;;;;;;6.20;0.90;;;21.30;99.90;;;20.67;100.00;97198.25;4936359;28;20040;-76
2023/07/21 09:59:09;;;;;;;1.58;0.70;;;21.40;99.90;;;20.92;100.00;97201.31;4943033;28;20043;-76
2023/07/21 10:01:37;;;;;;;2.72;0.80;;;21.20;99.90;;;20.23;100.00;97205.59;4927764;28;20051;-75
2023/07/21 10:04:08;;;;;;;2.22;0.80;;;20.70;99.90;;;19.90;100.00;97197.06;4941375;28;20057;-74
2023/07/21 10:06:36;;;;;;;4.00;1.13;;;20.20;99.90;;;19.80;100.00;97198.84;4924309;28;20155;-76
2023/07/21 10:09:08;;;;;;;2.10;0.73;;;20.20;99.90;;;19.82;100.00;97199.53;4946446;28;20496;-75
2023/07/21 10:11:36;;;;;;;4.70;0.90;;;20.10;99.90;;;20.14;100.00;97203.78;4944642;28;20047;-74
2023/07/21 10:14:03;;;;;;;3.40;1.00;;;20.20;99.90;;;19.93;100.00;97204.69;4946653;28;20500;-75
2023/07/21 10:16:30;;;;;;;2.47;0.90;;;20.50;99.90;;;20.14;100.00;97198.50;4949094;28;20651;-75
2023/07/21 10:19:11;;;;;;;5.97;1.02;;;20.70;99.90;;;20.30;100.00;97195.38;4948693;28;20050;-75